sensor_id;sensor_type;location;lat;lon;timestamp;pressure;altitude;pressure_sealevel;temperature;humidity
39275;BME280;24980;48.874;2.332;2023-07-31T00:01:55;101107.15;;;25.71;48.69
39275;BME280;24980;48.874;2.332;2023-07-31T00:04:23;101103.69;;;25.69;48.68
39275;BME280;24980;48.874;2.332;2023-07-31T00:06:54;101106.24;;;25.69;48.64
39275;BME280;24980;48.874;2.332;2023-07-31T00:09:23;101096.56;;;25.66;48.66
39275;BME280;24980;48.874;2.332;2023-07-31T00:11:56;101099.34;;;25.64;48.66
39275;BME280;24980;48.874;2.332;2023-07-31T00:14:24;101098.42;;;25.63;48.66
39275;BME280;24980;48.874;2.332;2023-07-31T00:16:55;101100.89;;;25.63;48.66
39275;BME280;24980;48.874;2.332;2023-07-31T00:19:25;101104.18;;;25.64;48.64
39275;BME280;24980;48.874;2.332;2023-07-31T00:21:56;101095.17;;;25.64;48.63
39275;BME280;24980;48.874;2.332;2023-07-31T00:24:28;101087.31;;;25.66;48.62
39275;BME280;24980;48.874;2.332;2023-07-31T00:26:57;101088.83;;;25.66;48.61
39275;BME280;24980;48.874;2.332;2023-07-31T00:29:27;101078.23;;;25.62;48.60
39275;BME280;24980;48.874;2.332;2023-07-31T00:31:57;101080.09;;;25.63;48.59
39275;BME280;24980;48.874;2.332;2023-07-31T00:34:28;101076.95;;;25.62;48.57
39275;BME280;24980;48.874;2.332;2023-07-31T00:36:58;101080.34;;;25.63;48.54
39275;BME280;24980;48.874;2.332;2023-07-31T00:39:29;101072.94;;;25.64;48.51
39275;BME280;24980;48.874;2.332;2023-07-31T00:41:59;101073.09;;;25.65;48.49
39275;BME280;24980;48.874;2.332;2023-07-31T00:44:30;101076.52;;;25.66;48.49
39275;BME280;24980;48.874;2.332;2023-07-31T00:47:00;101074.72;;;25.68;48.50
39275;BME280;24980;48.874;2.332;2023-07-31T00:49:30;101075.17;;;25.69;48.51
39275;BME280;24980;48.874;2.332;2023-07-31T00:52:03;101076.58;;;25.68;48.56
39275;BME280;24980;48.874;2.332;2023-07-31T00:57:05;101072.17;;;25.64;48.64
39275;BME280;24980;48.874;2.332;2023-07-31T00:59:32;101071.77;;;25.59;48.67
39275;BME280;24980;48.874;2.332;2023-07-31T01:02:06;101072.11;;;25.59;48.62
39275;BME280;24980;48.874;2.332;2023-07-31T01:04:32;101062.91;;;25.58;48.58
39275;BME280;24980;48.874;2.332;2023-07-31T01:07:24;101065.10;;;25.59;48.55
39275;BME280;24980;48.874;2.332;2023-07-31T01:09:49;101054.92;;;25.58;48.53
39275;BME280;24980;48.874;2.332;2023-07-31T01:12:04;101053.17;;;25.56;48.52
39275;BME280;24980;48.874;2.332;2023-07-31T01:14:34;101044.00;;;25.53;48.51
39275;BME280;24980;48.874;2.332;2023-07-31T01:17:04;101041.86;;;25.51;48.49
39275;BME280;24980;48.874;2.332;2023-07-31T01:19:34;101036.00;;;25.51;48.46
39275;BME280;24980;48.874;2.332;2023-07-31T01:22:30;101027.30;;;25.48;48.45
39275;BME280;24980;48.874;2.332;2023-07-31T01:24:59;101027.56;;;25.44;48.46
39275;BME280;24980;48.874;2.332;2023-07-31T01:27:20;101011.67;;;25.43;48.43
39275;BME280;24980;48.874;2.332;2023-07-31T01:29:52;101012.62;;;25.41;48.40
39275;BME280;24980;48.874;2.332;2023-07-31T01:32:08;101017.70;;;25.39;48.41
39275;BME280;24980;48.874;2.332;2023-07-31T01:34:39;101021.61;;;25.39;48.38
39275;BME280;24980;48.874;2.332;2023-07-31T01:37:09;101026.82;;;25.40;48.36
39275;BME280;24980;48.874;2.332;2023-07-31T01:39:43;101027.20;;;25.35;48.38
39275;BME280;24980;48.874;2.332;2023-07-31T01:42:10;101027.19;;;25.33;48.39
39275;BME280;24980;48.874;2.332;2023-07-31T01:44:40;101025.83;;;25.33;48.38
39275;BME280;24980;48.874;2.332;2023-07-31T01:47:10;101026.28;;;25.31;48.38
39275;BME280;24980;48.874;2.332;2023-07-31T01:49:40;101021.33;;;25.30;48.41
39275;BME280;24980;48.874;2.332;2023-07-31T01:52:10;101020.25;;;25.28;48.46
39275;BME280;24980;48.874;2.332;2023-07-31T01:54:41;101022.03;;;25.24;48.52
39275;BME280;24980;48.874;2.332;2023-07-31T01:57:11;101021.66;;;25.23;48.52
39275;BME280;24980;48.874;2.332;2023-07-31T01:59:42;101020.05;;;25.22;48.48
39275;BME280;24980;48.874;2.332;2023-07-31T02:02:15;101020.22;;;25.22;48.43
39275;BME280;24980;48.874;2.332;2023-07-31T02:04:49;101027.50;;;25.20;48.43
39275;BME280;24980;48.874;2.332;2023-07-31T02:07:13;101020.80;;;25.16;48.42
39275;BME280;24980;48.874;2.332;2023-07-31T02:09:46;101018.94;;;25.15;48.37
39275;BME280;24980;48.874;2.332;2023-07-31T02:12:14;101028.62;;;25.15;48.34
39275;BME280;24980;48.874;2.332;2023-07-31T02:14:44;101014.20;;;25.15;48.30
39275;BME280;24980;48.874;2.332;2023-07-31T02:17:15;101012.98;;;25.14;48.30
39275;BME280;24980;48.874;2.332;2023-07-31T02:19:45;101012.42;;;25.15;48.29
39275;BME280;24980;48.874;2.332;2023-07-31T02:22:15;101007.42;;;25.14;48.27
39275;BME280;24980;48.874;2.332;2023-07-31T02:24:46;101001.47;;;25.12;48.31
39275;BME280;24980;48.874;2.332;2023-07-31T02:27:16;100994.94;;;25.11;48.32
39275;BME280;24980;48.874;2.332;2023-07-31T02:29:46;100993.94;;;25.14;48.30
39275;BME280;24980;48.874;2.332;2023-07-31T02:32:16;100996.44;;;25.13;48.30
39275;BME280;24980;48.874;2.332;2023-07-31T02:34:46;100990.77;;;25.13;48.32
39275;BME280;24980;48.874;2.332;2023-07-31T02:37:17;100987.70;;;25.14;48.30
39275;BME280;24980;48.874;2.332;2023-07-31T02:39:50;100981.04;;;25.15;48.27
39275;BME280;24980;48.874;2.332;2023-07-31T02:42:18;100976.61;;;25.16;48.27
39275;BME280;24980;48.874;2.332;2023-07-31T02:44:47;100980.45;;;25.18;48.25
39275;BME280;24980;48.874;2.332;2023-07-31T02:47:17;100973.15;;;25.22;48.21
39275;BME280;24980;48.874;2.332;2023-07-31T02:49:48;100982.30;;;25.23;48.22
39275;BME280;24980;48.874;2.332;2023-07-31T02:52:19;100977.62;;;25.23;48.22
39275;BME280;24980;48.874;2.332;2023-07-31T02:54:49;100964.47;;;25.20;48.26
39275;BME280;24980;48.874;2.332;2023-07-31T02:57:19;100952.21;;;25.21;48.26
39275;BME280;24980;48.874;2.332;2023-07-31T02:59:49;100955.58;;;25.23;48.23
39275;BME280;24980;48.874;2.332;2023-07-31T03:02:19;100951.08;;;25.23;48.23
39275;BME280;24980;48.874;2.332;2023-07-31T03:04:50;100954.66;;;25.22;48.26
39275;BME280;24980;48.874;2.332;2023-07-31T03:07:20;100959.85;;;25.24;48.26
39275;BME280;24980;48.874;2.332;2023-07-31T03:09:50;100957.87;;;25.23;48.26
39275;BME280;24980;48.874;2.332;2023-07-31T03:12:20;100961.84;;;25.23;48.27
39275;BME280;24980;48.874;2.332;2023-07-31T03:14:50;100964.34;;;25.25;48.26
39275;BME280;24980;48.874;2.332;2023-07-31T03:17:28;100974.34;;;25.25;48.25
39275;BME280;24980;48.874;2.332;2023-07-31T03:19:51;100969.98;;;25.20;48.29
39275;BME280;24980;48.874;2.332;2023-07-31T03:22:23;100970.43;;;25.19;48.28
39275;BME280;24980;48.874;2.332;2023-07-31T03:24:52;100969.06;;;25.16;48.28
39275;BME280;24980;48.874;2.332;2023-07-31T03:27:23;100964.48;;;25.15;48.27
39275;BME280;24980;48.874;2.332;2023-07-31T03:29:53;100957.10;;;25.12;48.27
39275;BME280;24980;48.874;2.332;2023-07-31T03:32:23;100959.06;;;25.12;48.24
39275;BME280;24980;48.874;2.332;2023-07-31T03:34:54;100959.62;;;25.14;48.21
39275;BME280;24980;48.874;2.332;2023-07-31T03:37:24;100954.75;;;25.14;48.20
39275;BME280;24980;48.874;2.332;2023-07-31T03:39:54;100947.36;;;25.15;48.19
39275;BME280;24980;48.874;2.332;2023-07-31T03:42:24;100954.58;;;25.18;48.18
39275;BME280;24980;48.874;2.332;2023-07-31T03:44:54;100955.18;;;25.21;48.15
39275;BME280;24980;48.874;2.332;2023-07-31T03:47:25;100952.54;;;25.22;48.16
39275;BME280;24980;48.874;2.332;2023-07-31T03:49:57;100951.94;;;25.22;48.16
39275;BME280;24980;48.874;2.332;2023-07-31T03:52:40;100946.69;;;25.22;48.19
39275;BME280;24980;48.874;2.332;2023-07-31T03:54:56;100943.35;;;25.20;48.22
39275;BME280;24980;48.874;2.332;2023-07-31T03:57:26;100936.56;;;25.20;48.22
39275;BME280;24980;48.874;2.332;2023-07-31T03:59:56;100937.36;;;25.21;48.22
39275;BME280;24980;48.874;2.332;2023-07-31T04:02:28;100937.42;;;25.20;48.21
39275;BME280;24980;48.874;2.332;2023-07-31T04:04:57;100935.92;;;25.17;48.20
39275;BME280;24980;48.874;2.332;2023-07-31T04:07:27;100929.88;;;25.15;48.21
39275;BME280;24980;48.874;2.332;2023-07-31T04:10:00;100933.52;;;25.16;48.18
39275;BME280;24980;48.874;2.332;2023-07-31T04:12:27;100942.26;;;25.16;48.17
39275;BME280;24980;48.874;2.332;2023-07-31T04:15:00;100948.71;;;25.15;48.17
39275;BME280;24980;48.874;2.332;2023-07-31T04:17:28;100950.16;;;25.15;48.14
39275;BME280;24980;48.874;2.332;2023-07-31T04:19:58;100944.20;;;25.13;48.15
39275;BME280;24980;48.874;2.332;2023-07-31T04:22:28;100944.91;;;25.14;48.14
39275;BME280;24980;48.874;2.332;2023-07-31T04:27:34;100935.39;;;25.09;48.14
39275;BME280;24980;48.874;2.332;2023-07-31T04:29:59;100942.32;;;25.07;48.14
39275;BME280;24980;48.874;2.332;2023-07-31T04:32:29;100938.03;;;25.05;48.13
39275;BME280;24980;48.874;2.332;2023-07-31T04:34:59;100938.95;;;25.02;48.13
39275;BME280;24980;48.874;2.332;2023-07-31T04:37:29;100932.98;;;25.00;48.12
39275;BME280;24980;48.874;2.332;2023-07-31T04:40:00;100932.16;;;24.99;48.12
39275;BME280;24980;48.874;2.332;2023-07-31T04:42:30;100937.48;;;25.00;48.08
39275;BME280;24980;48.874;2.332;2023-07-31T04:45:00;100930.61;;;24.97;48.10
39275;BME280;24980;48.874;2.332;2023-07-31T04:47:30;100933.84;;;24.97;48.09
39275;BME280;24980;48.874;2.332;2023-07-31T04:50:00;100947.32;;;24.96;48.07
39275;BME280;24980;48.874;2.332;2023-07-31T04:52:30;100955.31;;;24.95;48.04
39275;BME280;24980;48.874;2.332;2023-07-31T04:55:00;100946.27;;;24.91;48.04
39275;BME280;24980;48.874;2.332;2023-07-31T04:57:30;100943.33;;;24.89;48.03
39275;BME280;24980;48.874;2.332;2023-07-31T05:00:16;100945.86;;;24.82;48.03
39275;BME280;24980;48.874;2.332;2023-07-31T05:02:34;100944.37;;;24.77;48.05
39275;BME280;24980;48.874;2.332;2023-07-31T05:05:01;100942.59;;;24.73;48.04
39275;BME280;24980;48.874;2.332;2023-07-31T05:07:31;100945.02;;;24.71;48.00
39275;BME280;24980;48.874;2.332;2023-07-31T05:10:01;100942.06;;;24.70;47.97
39275;BME280;24980;48.874;2.332;2023-07-31T05:12:31;100940.87;;;24.70;47.92
39275;BME280;24980;48.874;2.332;2023-07-31T05:15:01;100939.50;;;24.71;47.89
39275;BME280;24980;48.874;2.332;2023-07-31T05:17:31;100937.06;;;24.74;47.84
39275;BME280;24980;48.874;2.332;2023-07-31T05:20:01;100934.27;;;24.77;47.82
39275;BME280;24980;48.874;2.332;2023-07-31T05:22:31;100937.98;;;24.78;47.80
39275;BME280;24980;48.874;2.332;2023-07-31T05:25:01;100940.14;;;24.79;47.80
39275;BME280;24980;48.874;2.332;2023-07-31T05:27:31;100933.36;;;24.79;47.80
39275;BME280;24980;48.874;2.332;2023-07-31T05:30:02;100936.84;;;24.79;47.83
39275;BME280;24980;48.874;2.332;2023-07-31T05:32:32;100934.72;;;24.79;47.86
39275;BME280;24980;48.874;2.332;2023-07-31T05:35:03;100931.80;;;24.78;47.88
39275;BME280;24980;48.874;2.332;2023-07-31T05:37:33;100925.98;;;24.76;47.93
39275;BME280;24980;48.874;2.332;2023-07-31T05:40:04;100924.78;;;24.80;47.91
39275;BME280;24980;48.874;2.332;2023-07-31T05:42:34;100919.50;;;24.83;47.91
39275;BME280;24980;48.874;2.332;2023-07-31T05:45:05;100921.53;;;24.82;47.93
39275;BME280;24980;48.874;2.332;2023-07-31T05:47:34;100919.01;;;24.81;47.96
39275;BME280;24980;48.874;2.332;2023-07-31T05:50:04;100915.39;;;24.79;47.98
39275;BME280;24980;48.874;2.332;2023-07-31T05:52:35;100911.36;;;24.83;48.01
39275;BME280;24980;48.874;2.332;2023-07-31T05:55:05;100904.73;;;24.84;48.04
39275;BME280;24980;48.874;2.332;2023-07-31T05:57:36;100909.44;;;24.81;48.12
39275;BME280;24980;48.874;2.332;2023-07-31T06:00:06;100903.25;;;24.81;48.13
39275;BME280;24980;48.874;2.332;2023-07-31T06:02:37;100889.07;;;24.82;48.13
39275;BME280;24980;48.874;2.332;2023-07-31T06:05:08;100895.81;;;24.84;48.11
39275;BME280;24980;48.874;2.332;2023-07-31T06:07:38;100896.19;;;24.86;48.11
39275;BME280;24980;48.874;2.332;2023-07-31T06:10:08;100896.43;;;24.83;48.14
39275;BME280;24980;48.874;2.332;2023-07-31T06:12:38;100900.98;;;24.85;48.13
39275;BME280;24980;48.874;2.332;2023-07-31T06:15:08;100897.36;;;24.87;48.14
39275;BME280;24980;48.874;2.332;2023-07-31T06:17:38;100891.36;;;24.89;48.12
39275;BME280;24980;48.874;2.332;2023-07-31T06:20:08;100884.05;;;24.91;48.12
39275;BME280;24980;48.874;2.332;2023-07-31T06:22:40;100880.33;;;24.93;48.13
39275;BME280;24980;48.874;2.332;2023-07-31T06:25:09;100876.07;;;24.95;48.15
39275;BME280;24980;48.874;2.332;2023-07-31T06:27:39;100884.26;;;24.95;48.18
39275;BME280;24980;48.874;2.332;2023-07-31T06:30:10;100885.08;;;24.96;48.19
39275;BME280;24980;48.874;2.332;2023-07-31T06:32:40;100886.80;;;24.99;48.19
39275;BME280;24980;48.874;2.332;2023-07-31T06:35:12;100901.61;;;25.00;48.22
39275;BME280;24980;48.874;2.332;2023-07-31T06:37:43;100898.38;;;25.01;48.25
39275;BME280;24980;48.874;2.332;2023-07-31T06:40:11;100892.66;;;25.02;48.27
39275;BME280;24980;48.874;2.332;2023-07-31T06:42:45;100890.15;;;25.01;48.31
39275;BME280;24980;48.874;2.332;2023-07-31T06:45:18;100895.10;;;25.02;48.33
39275;BME280;24980;48.874;2.332;2023-07-31T06:50:17;100905.80;;;25.02;48.43
39275;BME280;24980;48.874;2.332;2023-07-31T06:52:43;100905.09;;;25.03;48.47
39275;BME280;24980;48.874;2.332;2023-07-31T06:55:18;100899.95;;;25.04;48.48
39275;BME280;24980;48.874;2.332;2023-07-31T06:57:44;100904.41;;;25.04;48.54
39275;BME280;24980;48.874;2.332;2023-07-31T07:00:14;100906.90;;;25.02;48.59
39275;BME280;24980;48.874;2.332;2023-07-31T07:02:47;100905.45;;;25.02;48.66
39275;BME280;24980;48.874;2.332;2023-07-31T07:05:16;100902.05;;;25.03;48.72
39275;BME280;24980;48.874;2.332;2023-07-31T07:07:45;100899.92;;;25.03;48.79
39275;BME280;24980;48.874;2.332;2023-07-31T07:10:16;100893.12;;;24.97;48.87
39275;BME280;24980;48.874;2.332;2023-07-31T07:12:47;100893.05;;;24.96;48.94
39275;BME280;24980;48.874;2.332;2023-07-31T07:15:17;100884.05;;;24.98;48.95
39275;BME280;24980;48.874;2.332;2023-07-31T07:17:48;100878.98;;;25.00;48.94
39275;BME280;24980;48.874;2.332;2023-07-31T07:20:19;100878.22;;;24.99;48.95
39275;BME280;24980;48.874;2.332;2023-07-31T07:22:55;100873.62;;;25.00;48.94
39275;BME280;24980;48.874;2.332;2023-07-31T07:25:22;100871.45;;;25.02;48.92
39275;BME280;24980;48.874;2.332;2023-07-31T07:27:50;100877.98;;;25.01;48.92
39275;BME280;24980;48.874;2.332;2023-07-31T07:30:22;100878.39;;;24.99;48.94
39275;BME280;24980;48.874;2.332;2023-07-31T07:32:53;100874.57;;;25.00;48.94
39275;BME280;24980;48.874;2.332;2023-07-31T07:35:22;100874.90;;;25.00;48.93
39275;BME280;24980;48.874;2.332;2023-07-31T07:37:52;100871.43;;;25.00;48.95
39275;BME280;24980;48.874;2.332;2023-07-31T07:40:22;100873.21;;;25.00;48.96
39275;BME280;24980;48.874;2.332;2023-07-31T07:42:59;100876.77;;;25.00;48.98
39275;BME280;24980;48.874;2.332;2023-07-31T07:45:23;100874.47;;;25.00;49.01
39275;BME280;24980;48.874;2.332;2023-07-31T07:47:53;100866.36;;;24.95;49.07
39275;BME280;24980;48.874;2.332;2023-07-31T07:50:32;100865.14;;;24.94;49.06
39275;BME280;24980;48.874;2.332;2023-07-31T07:53:10;100869.16;;;24.95;49.04
39275;BME280;24980;48.874;2.332;2023-07-31T07:55:34;100876.91;;;24.95;49.07
39275;BME280;24980;48.874;2.332;2023-07-31T07:58:03;100870.06;;;24.93;49.10
39275;BME280;24980;48.874;2.332;2023-07-31T08:00:40;100867.45;;;24.93;49.13
39275;BME280;24980;48.874;2.332;2023-07-31T08:03:00;100868.97;;;24.90;49.20
39275;BME280;24980;48.874;2.332;2023-07-31T08:10:56;100874.41;;;24.82;49.35
39275;BME280;24980;48.874;2.332;2023-07-31T08:13:06;100863.66;;;24.78;49.35
39275;BME280;24980;48.874;2.332;2023-07-31T08:15:43;100852.88;;;24.75;49.35
39275;BME280;24980;48.874;2.332;2023-07-31T08:18:09;100857.02;;;24.79;49.30
39275;BME280;24980;48.874;2.332;2023-07-31T08:20:39;100866.29;;;24.81;49.26
39275;BME280;24980;48.874;2.332;2023-07-31T08:23:17;100858.09;;;24.85;49.25
39275;BME280;24980;48.874;2.332;2023-07-31T08:28:07;100861.75;;;24.83;49.29
39275;BME280;24980;48.874;2.332;2023-07-31T08:30:31;100857.64;;;24.81;49.32
39275;BME280;24980;48.874;2.332;2023-07-31T08:33:02;100852.98;;;24.80;49.29
39275;BME280;24980;48.874;2.332;2023-07-31T08:35:40;100851.12;;;24.77;49.25
39275;BME280;24980;48.874;2.332;2023-07-31T08:40:37;100841.77;;;24.72;49.17
39275;BME280;24980;48.874;2.332;2023-07-31T08:43:05;100832.52;;;24.69;49.13
39275;BME280;24980;48.874;2.332;2023-07-31T08:45:33;100835.17;;;24.67;49.08
39275;BME280;24980;48.874;2.332;2023-07-31T08:48:03;100845.83;;;24.65;49.05
39275;BME280;24980;48.874;2.332;2023-07-31T08:50:33;100835.52;;;24.63;49.00
39275;BME280;24980;48.874;2.332;2023-07-31T08:53:04;100842.11;;;24.64;48.95
39275;BME280;24980;48.874;2.332;2023-07-31T08:55:35;100833.06;;;24.66;48.90
39275;BME280;24980;48.874;2.332;2023-07-31T08:58:05;100832.54;;;24.64;48.91
39275;BME280;24980;48.874;2.332;2023-07-31T09:00:36;100823.74;;;24.66;48.92
39275;BME280;24980;48.874;2.332;2023-07-31T09:03:10;100827.22;;;24.66;48.93
39275;BME280;24980;48.874;2.332;2023-07-31T09:05:39;100818.39;;;24.67;48.93
39275;BME280;24980;48.874;2.332;2023-07-31T09:08:09;100828.80;;;24.68;48.94
39275;BME280;24980;48.874;2.332;2023-07-31T09:10:41;100837.77;;;24.66;48.96
39275;BME280;24980;48.874;2.332;2023-07-31T09:13:08;100840.92;;;24.64;48.95
39275;BME280;24980;48.874;2.332;2023-07-31T09:15:43;100837.27;;;24.65;48.93
39275;BME280;24980;48.874;2.332;2023-07-31T09:18:18;100838.40;;;24.63;48.93
39275;BME280;24980;48.874;2.332;2023-07-31T09:20:40;100838.15;;;24.63;48.93
39275;BME280;24980;48.874;2.332;2023-07-31T09:23:13;100845.35;;;24.66;48.90
39275;BME280;24980;48.874;2.332;2023-07-31T09:25:44;100846.53;;;24.67;48.95
39275;BME280;24980;48.874;2.332;2023-07-31T09:28:11;100847.70;;;24.72;48.93
39275;BME280;24980;48.874;2.332;2023-07-31T09:30:46;100848.33;;;24.76;48.93
39275;BME280;24980;48.874;2.332;2023-07-31T09:33:12;100845.94;;;24.81;48.92
39275;BME280;24980;48.874;2.332;2023-07-31T09:35:42;100845.12;;;24.84;48.95
39275;BME280;24980;48.874;2.332;2023-07-31T09:38:13;100837.51;;;24.87;48.98
39275;BME280;24980;48.874;2.332;2023-07-31T09:40:45;100840.65;;;24.90;49.03
39275;BME280;24980;48.874;2.332;2023-07-31T09:43:17;100845.58;;;24.93;49.08
39275;BME280;24980;48.874;2.332;2023-07-31T09:45:44;100842.70;;;24.95;49.13
39275;BME280;24980;48.874;2.332;2023-07-31T09:48:16;100838.70;;;24.97;49.19
39275;BME280;24980;48.874;2.332;2023-07-31T09:50:47;100831.25;;;24.99;49.24
39275;BME280;24980;48.874;2.332;2023-07-31T09:53:20;100828.18;;;25.03;49.29
39275;BME280;24980;48.874;2.332;2023-07-31T09:55:47;100831.06;;;25.06;49.35
39275;BME280;24980;48.874;2.332;2023-07-31T09:58:17;100833.97;;;25.08;49.40
39275;BME280;24980;48.874;2.332;2023-07-31T10:00:49;100833.02;;;25.09;49.47
39275;BME280;24980;48.874;2.332;2023-07-31T10:03:22;100827.83;;;25.10;49.51
39275;BME280;24980;48.874;2.332;2023-07-31T10:05:50;100811.41;;;25.11;49.56
39275;BME280;24980;48.874;2.332;2023-07-31T10:08:26;100791.73;;;25.11;49.59
39275;BME280;24980;48.874;2.332;2023-07-31T10:10:51;100794.27;;;25.12;49.63
39275;BME280;24980;48.874;2.332;2023-07-31T10:13:21;100794.67;;;25.13;49.67
39275;BME280;24980;48.874;2.332;2023-07-31T10:15:52;100808.48;;;25.14;49.71
39275;BME280;24980;48.874;2.332;2023-07-31T10:18:22;100810.80;;;25.15;49.76
39275;BME280;24980;48.874;2.332;2023-07-31T10:20:53;100805.18;;;25.16;49.79
39275;BME280;24980;48.874;2.332;2023-07-31T10:23:24;100802.80;;;25.16;49.81
39275;BME280;24980;48.874;2.332;2023-07-31T10:25:54;100793.42;;;25.17;49.84
39275;BME280;24980;48.874;2.332;2023-07-31T10:28:35;100792.73;;;25.18;49.85
39275;BME280;24980;48.874;2.332;2023-07-31T10:31:13;100773.38;;;25.19;49.87
39275;BME280;24980;48.874;2.332;2023-07-31T10:33:34;100777.69;;;25.20;49.90
39275;BME280;24980;48.874;2.332;2023-07-31T10:36:13;100792.73;;;25.21;49.93
39275;BME280;24980;48.874;2.332;2023-07-31T10:38:25;100789.16;;;25.22;49.94
39275;BME280;24980;48.874;2.332;2023-07-31T10:41:07;100782.77;;;25.24;49.96
39275;BME280;24980;48.874;2.332;2023-07-31T10:43:26;100786.27;;;25.25;49.97
39275;BME280;24980;48.874;2.332;2023-07-31T10:45:56;100779.72;;;25.26;49.99
39275;BME280;24980;48.874;2.332;2023-07-31T10:48:34;100779.70;;;25.27;50.02
39275;BME280;24980;48.874;2.332;2023-07-31T10:50:57;100779.66;;;25.28;50.04
39275;BME280;24980;48.874;2.332;2023-07-31T10:53:32;100770.98;;;25.29;50.06
39275;BME280;24980;48.874;2.332;2023-07-31T10:55:59;100779.95;;;25.30;50.10
39275;BME280;24980;48.874;2.332;2023-07-31T10:58:28;100780.69;;;25.30;50.12
39275;BME280;24980;48.874;2.332;2023-07-31T11:01:00;100765.74;;;25.31;50.13
39275;BME280;24980;48.874;2.332;2023-07-31T11:03:46;100783.12;;;25.31;50.16
39275;BME280;24980;48.874;2.332;2023-07-31T11:06:03;100783.55;;;25.31;50.17
39275;BME280;24980;48.874;2.332;2023-07-31T11:11:06;100772.23;;;25.33;50.20
39275;BME280;24980;48.874;2.332;2023-07-31T11:13:52;100766.12;;;25.33;50.21
39275;BME280;24980;48.874;2.332;2023-07-31T11:16:02;100769.53;;;25.32;50.23
39275;BME280;24980;48.874;2.332;2023-07-31T11:18:32;100767.74;;;25.33;50.24
39275;BME280;24980;48.874;2.332;2023-07-31T11:21:02;100754.25;;;25.33;50.24
39275;BME280;24980;48.874;2.332;2023-07-31T11:23:33;100747.29;;;25.33;50.25
39275;BME280;24980;48.874;2.332;2023-07-31T11:26:05;100768.03;;;25.34;50.25
39275;BME280;24980;48.874;2.332;2023-07-31T11:28:34;100768.36;;;25.34;50.26
39275;BME280;24980;48.874;2.332;2023-07-31T11:31:04;100768.26;;;25.35;50.26
39275;BME280;24980;48.874;2.332;2023-07-31T11:33:34;100761.64;;;25.35;50.26
39275;BME280;24980;48.874;2.332;2023-07-31T11:36:04;100758.98;;;25.36;50.29
39275;BME280;24980;48.874;2.332;2023-07-31T11:38:35;100762.21;;;25.36;50.30
39275;BME280;24980;48.874;2.332;2023-07-31T11:41:05;100767.84;;;25.37;50.32
39275;BME280;24980;48.874;2.332;2023-07-31T11:43:35;100771.73;;;25.38;50.34
39275;BME280;24980;48.874;2.332;2023-07-31T11:46:07;100767.97;;;25.39;50.36
39275;BME280;24980;48.874;2.332;2023-07-31T11:48:37;100767.85;;;25.40;50.38
39275;BME280;24980;48.874;2.332;2023-07-31T11:51:13;100765.97;;;25.40;50.40
39275;BME280;24980;48.874;2.332;2023-07-31T11:53:45;100759.42;;;25.41;50.43
39275;BME280;24980;48.874;2.332;2023-07-31T11:56:09;100751.79;;;25.41;50.44
39275;BME280;24980;48.874;2.332;2023-07-31T11:58:38;100741.43;;;25.41;50.45
39275;BME280;24980;48.874;2.332;2023-07-31T12:01:08;100737.09;;;25.42;50.46
39275;BME280;24980;48.874;2.332;2023-07-31T12:03:38;100738.52;;;25.42;50.48
39275;BME280;24980;48.874;2.332;2023-07-31T12:06:10;100729.09;;;25.43;50.50
39275;BME280;24980;48.874;2.332;2023-07-31T12:08:39;100729.72;;;25.44;50.51
39275;BME280;24980;48.874;2.332;2023-07-31T12:11:10;100727.09;;;25.44;50.51
39275;BME280;24980;48.874;2.332;2023-07-31T12:13:39;100725.71;;;25.45;50.52
39275;BME280;24980;48.874;2.332;2023-07-31T12:16:10;100726.75;;;25.47;50.52
39275;BME280;24980;48.874;2.332;2023-07-31T12:18:40;100728.44;;;25.47;50.56
39275;BME280;24980;48.874;2.332;2023-07-31T12:21:10;100733.25;;;25.49;50.57
39275;BME280;24980;48.874;2.332;2023-07-31T12:23:40;100726.35;;;25.50;50.57
39275;BME280;24980;48.874;2.332;2023-07-31T12:26:17;100723.36;;;25.51;50.57
39275;BME280;24980;48.874;2.332;2023-07-31T12:28:50;100718.08;;;25.52;50.56
39275;BME280;24980;48.874;2.332;2023-07-31T12:31:13;100713.61;;;25.53;50.55
39275;BME280;24980;48.874;2.332;2023-07-31T12:33:44;100700.09;;;25.54;50.54
39275;BME280;24980;48.874;2.332;2023-07-31T12:36:14;100696.19;;;25.54;50.54
39275;BME280;24980;48.874;2.332;2023-07-31T12:38:43;100701.55;;;25.54;50.54
39275;BME280;24980;48.874;2.332;2023-07-31T12:41:14;100689.67;;;25.53;50.54
39275;BME280;24980;48.874;2.332;2023-07-31T12:43:45;100698.76;;;25.53;50.55
39275;BME280;24980;48.874;2.332;2023-07-31T12:46:14;100691.34;;;25.52;50.55
39275;BME280;24980;48.874;2.332;2023-07-31T12:48:44;100686.09;;;25.51;50.56
39275;BME280;24980;48.874;2.332;2023-07-31T12:51:14;100673.97;;;25.51;50.57
39275;BME280;24980;48.874;2.332;2023-07-31T12:53:45;100666.59;;;25.50;50.61
39275;BME280;24980;48.874;2.332;2023-07-31T12:56:15;100663.05;;;25.50;50.63
39275;BME280;24980;48.874;2.332;2023-07-31T12:58:48;100655.91;;;25.50;50.64
39275;BME280;24980;48.874;2.332;2023-07-31T13:01:19;100655.99;;;25.50;50.63
39275;BME280;24980;48.874;2.332;2023-07-31T13:03:49;100659.62;;;25.51;50.65
39275;BME280;24980;48.874;2.332;2023-07-31T13:06:17;100647.52;;;25.50;50.63
39275;BME280;24980;48.874;2.332;2023-07-31T13:08:47;100649.88;;;25.50;50.63
39275;BME280;24980;48.874;2.332;2023-07-31T13:11:17;100644.88;;;25.50;50.62
39275;BME280;24980;48.874;2.332;2023-07-31T13:13:47;100638.34;;;25.50;50.62
39275;BME280;24980;48.874;2.332;2023-07-31T13:16:18;100631.13;;;25.50;50.62
39275;BME280;24980;48.874;2.332;2023-07-31T13:18:48;100626.20;;;25.50;50.62
39275;BME280;24980;48.874;2.332;2023-07-31T13:21:18;100615.51;;;25.50;50.62
39275;BME280;24980;48.874;2.332;2023-07-31T13:23:49;100611.53;;;25.50;50.63
39275;BME280;24980;48.874;2.332;2023-07-31T13:26:21;100612.80;;;25.50;50.63